Time;durP1;ratioP1;P1;durP2;ratioP2;P2;SDS_P1;SDS_P2;PMS_P1;PMS_P2;Temp;Humidity;BMP_temperature;BMP_pressure;BME280_temperature;BME280_humidity;BME280_pressure;Samples;Min_cycle;Max_cycle;Signal;HPM_P1;HPM_P2
2022/05/18 00:01:28;;;;;;;6.53;4.25;;;;;;;24.00;44.09;102005.41;5016818;28;20045;-67
2022/05/18 00:03:54;;;;;;;7.13;4.05;;;;;;;23.94;44.17;101995.50;5023794;28;20056;-67
2022/05/18 00:06:20;;;;;;;6.57;4.15;;;;;;;23.96;44.31;101996.97;5012127;28;20034;-67
2022/05/18 00:08:45;;;;;;;6.97;4.40;;;;;;;23.95;44.18;101997.16;5016715;28;20095;-67
2022/05/18 00:11:16;;;;;;;7.22;4.30;;;;;;;23.90;44.31;101991.53;5015617;28;20045;-67
2022/05/18 00:13:45;;;;;;;5.93;3.97;;;;;;;23.93;44.30;102001.81;5015564;28;20510;-67
2022/05/18 00:16:12;;;;;;;5.80;4.33;;;;;;;23.92;44.31;102000.16;5014588;28;20256;-67
2022/05/18 00:18:37;;;;;;;6.72;4.15;;;;;;;23.90;44.38;101995.03;5018330;28;20498;-67
2022/05/18 00:21:04;;;;;;;8.43;4.45;;;;;;;23.87;44.41;101998.03;5012604;28;20041;-67
2022/05/18 00:23:30;;;;;;;6.72;4.55;;;;;;;23.88;44.52;101997.03;5015549;28;20094;-67
2022/05/18 00:25:56;;;;;;;5.18;3.55;;;;;;;23.87;44.43;102000.69;5015741;28;20045;-67
2022/05/18 00:28:22;;;;;;;8.20;4.50;;;;;;;23.87;44.30;102002.50;5015077;28;20557;-67
2022/05/18 00:30:48;;;;;;;6.72;4.63;;;;;;;23.82;44.51;101992.41;5015837;28;20044;-67
2022/05/18 00:33:14;;;;;;;5.28;3.95;;;;;;;23.86;44.48;101992.88;5013303;28;20037;-67
2022/05/18 00:35:40;;;;;;;6.10;4.38;;;;;;;23.84;44.43;101998.38;5016547;28;20158;-66
2022/05/18 00:38:07;;;;;;;5.78;4.38;;;;;;;23.84;44.35;102001.03;5017765;28;20033;-67
2022/05/18 00:40:35;;;;;;;6.30;4.43;;;;;;;23.79;44.48;101987.47;5012787;28;20221;-66
2022/05/18 00:43:01;;;;;;;5.35;3.85;;;;;;;23.79;44.44;101988.28;5013187;28;20041;-67
2022/05/18 00:45:26;;;;;;;6.03;4.05;;;;;;;23.81;44.33;101977.47;5013958;28;20088;-67
2022/05/18 00:47:52;;;;;;;6.13;3.90;;;;;;;23.81;44.49;101986.28;5015209;28;20045;-67
2022/05/18 00:50:39;;;;;;;8.27;4.30;;;;;;;23.74;44.46;101988.00;5015368;28;20509;-67
2022/05/18 00:53:10;;;;;;;4.95;4.05;;;;;;;23.74;44.40;101987.16;5016038;28;20613;-67
2022/05/18 00:55:40;;;;;;;6.28;4.28;;;;;;;23.75;44.50;101992.31;5015893;28;20458;-67
2022/05/18 00:58:15;;;;;;;6.60;4.10;;;;;;;23.71;44.56;101987.53;5016918;28;20041;-66
2022/05/18 01:00:41;;;;;;;5.07;4.05;;;;;;;23.74;44.39;101992.50;5014818;28;20217;-67
2022/05/18 01:03:21;;;;;;;6.60;4.45;;;;;;;23.68;44.56;101994.00;5013859;28;20056;-67
2022/05/18 01:05:53;;;;;;;4.85;3.55;;;;;;;23.73;44.49;102001.47;5014395;28;20112;-67
2022/05/18 01:08:29;;;;;;;6.30;4.40;;;;;;;23.69;44.59;101993.00;5012802;28;20038;-67
2022/05/18 01:10:55;;;;;;;5.90;4.10;;;;;;;23.70;44.66;101994.69;5011922;28;20071;-67
2022/05/18 01:13:20;;;;;;;6.65;3.70;;;;;;;23.71;44.70;101998.16;5014817;28;20277;-67
2022/05/18 01:15:46;;;;;;;5.85;4.30;;;;;;;23.69;44.54;101989.50;5010590;28;20041;-67
2022/05/18 01:18:13;;;;;;;6.55;4.32;;;;;;;23.68;44.41;101999.31;5016272;28;20102;-67
2022/05/18 01:20:38;;;;;;;6.25;3.95;;;;;;;23.48;44.53;101967.03;5019633;28;20048;-67
2022/05/18 01:23:38;;;;;;;6.72;4.30;;;;;;;23.65;44.40;101993.53;5017203;28;20049;-67
2022/05/18 01:26:29;;;;;;;5.97;3.85;;;;;;;23.67;44.58;101995.00;5020365;28;20499;-67
2022/05/18 01:29:00;;;;;;;5.90;4.28;;;;;;;23.65;44.43;101993.53;5017618;28;20045;-67
2022/05/18 01:31:57;;;;;;;5.70;4.13;;;;;;;23.63;44.60;101991.06;5016382;28;20462;-67
2022/05/18 01:34:27;;;;;;;5.00;4.03;;;;;;;23.61;44.39;101992.25;5015398;28;20111;-67
2022/05/18 01:36:52;;;;;;;5.55;3.97;;;;;;;23.62;44.60;101992.06;5017692;28;20033;-67
2022/05/18 01:39:47;;;;;;;5.53;4.15;;;;;;;23.59;44.71;101992.44;5020447;28;21982;-67
2022/05/18 01:42:31;;;;;;;6.07;4.38;;;;;;;23.60;44.56;101986.09;5019259;28;20079;-67
2022/05/18 01:44:57;;;;;;;7.60;4.32;;;;;;;23.60;44.46;101987.94;5018425;28;20605;-67
2022/05/18 01:47:23;;;;;;;5.05;3.85;;;;;;;23.56;44.56;101982.13;5016191;28;20124;-67
2022/05/18 01:49:49;;;;;;;6.03;3.80;;;;;;;23.55;44.57;101984.94;5017628;28;20038;-67
2022/05/18 01:52:16;;;;;;;7.53;4.22;;;;;;;23.60;44.48;101993.25;5016731;28;20037;-67
2022/05/18 01:54:45;;;;;;;4.97;3.72;;;;;;;23.51;44.39;101987.94;5018907;28;20046;-67
2022/05/18 01:57:12;;;;;;;;;;;;;;;23.57;44.74;101994.44;5020925;28;20121;-67
2022/05/18 01:59:39;;;;;;;7.55;4.07;;;;;;;23.56;44.64;101998.06;5020903;28;19952;-67
2022/05/18 02:02:10;;;;;;;7.50;3.97;;;;;;;23.54;44.75;101984.13;5020451;28;20434;-67
2022/05/18 02:04:36;;;;;;;7.28;4.07;;;;;;;23.59;44.44;101996.91;5021195;28;20072;-67
2022/05/18 02:07:03;;;;;;;7.90;4.65;;;;;;;23.56;44.62;101989.25;5019519;28;20120;-67
2022/05/18 02:09:29;;;;;;;7.00;4.32;;;;;;;23.56;44.55;101992.75;5019264;28;20060;-67
2022/05/18 02:11:55;;;;;;;6.45;4.35;;;;;;;23.54;44.39;101992.09;5016302;28;20037;-67
2022/05/18 02:14:22;;;;;;;5.47;4.40;;;;;;;23.52;44.55;101997.59;5020641;28;20428;-67
2022/05/18 02:16:48;;;;;;;5.53;4.10;;;;;;;23.50;44.48;101999.56;5019199;28;20060;-67
2022/05/18 02:19:13;;;;;;;5.15;3.83;;;;;;;23.47;44.65;101991.97;5018010;28;20434;-67
2022/05/18 02:21:39;;;;;;;6.43;4.45;;;;;;;23.43;44.59;101989.84;5015203;28;20029;-67
2022/05/18 02:24:05;;;;;;;5.30;4.20;;;;;;;23.51;44.29;101997.75;5015807;28;20026;-67
2022/05/18 02:26:30;;;;;;;5.20;4.18;;;;;;;23.30;44.60;101963.81;5013230;28;21381;-66
2022/05/18 02:28:56;;;;;;;8.10;4.18;;;;;;;23.45;44.49;101986.00;5016400;28;20045;-67
2022/05/18 02:31:21;;;;;;;5.18;4.00;;;;;;;23.48;44.47;101982.97;5016315;28;20057;-66
2022/05/18 02:33:47;;;;;;;5.15;3.83;;;;;;;23.45;44.49;101986.00;5016240;28;20045;-67
2022/05/18 02:36:13;;;;;;;5.82;3.83;;;;;;;23.43;44.68;101976.53;5015393;28;20029;-67
2022/05/18 02:38:40;;;;;;;6.18;4.38;;;;;;;23.45;44.50;101985.16;5016586;28;20503;-67
2022/05/18 02:41:06;;;;;;;6.40;4.40;;;;;;;23.37;44.57;101979.91;5015638;28;20041;-67
2022/05/18 02:43:37;;;;;;;7.03;4.28;;;;;;;23.45;44.52;101990.47;5015274;28;20037;-67
2022/05/18 02:46:10;;;;;;;8.57;3.92;;;;;;;23.40;44.41;101987.53;5017977;28;20041;-67
2022/05/18 02:48:36;;;;;;;5.25;4.20;;;;;;;23.44;44.50;101992.31;5013602;28;20029;-67
2022/05/18 02:51:03;;;;;;;5.97;4.30;;;;;;;23.45;44.41;101993.16;5015277;28;20037;-67
2022/05/18 02:53:29;;;;;;;7.40;4.65;;;;;;;23.41;44.44;101987.34;5013334;28;20880;-67
2022/05/18 02:56:07;;;;;;;5.10;3.90;;;;;;;23.40;44.55;101984.88;5018327;28;20050;-67
2022/05/18 02:58:40;;;;;;;6.13;4.03;;;;;;;23.41;44.69;101991.84;5016234;28;20068;-67
2022/05/18 03:01:08;;;;;;;5.57;3.92;;;;;;;23.42;44.61;101990.84;5018171;28;20026;-67
2022/05/18 03:03:35;;;;;;;6.68;4.30;;;;;;;23.33;44.70;101983.91;5012523;28;20034;-67
2022/05/18 03:06:03;;;;;;;5.95;4.00;;;;;;;23.42;44.47;101994.31;5016999;28;20033;-67
2022/05/18 03:08:32;;;;;;;5.70;4.38;;;;;;;23.41;44.59;102003.31;5019139;28;20783;-67
2022/05/18 03:10:58;;;;;;;4.82;4.15;;;;;;;23.38;44.53;102003.66;5014486;28;20045;-67
2022/05/18 03:13:23;;;;;;;8.32;3.97;;;;;;;23.42;44.71;101993.50;5017697;28;20025;-67
2022/05/18 03:15:49;;;;;;;5.50;3.92;;;;;;;23.32;44.42;101985.72;5015410;28;20040;-67
2022/05/18 03:18:15;;;;;;;6.82;4.00;;;;;;;23.41;44.45;101995.31;5015426;28;20646;-67
2022/05/18 03:23:35;;;;;;;5.90;4.30;;;;;;;23.37;44.55;101999.34;5018844;28;20049;-67
2022/05/18 03:26:18;;;;;;;5.35;4.00;;;;;;;23.34;44.49;101996.19;5014355;28;20124;-66
2022/05/18 03:28:46;;;;;;;5.05;4.10;;;;;;;23.37;44.53;102001.19;5017331;28;20038;-67
2022/05/18 03:31:12;;;;;;;6.32;3.90;;;;;;;23.32;44.59;101982.25;5015660;28;20121;-67
2022/05/18 03:33:39;;;;;;;4.60;3.95;;;;;;;23.38;44.46;101992.19;5017789;28;20044;-67
2022/05/18 03:36:07;;;;;;;6.05;3.92;;;;;;;23.34;44.43;101990.88;5015316;28;20033;-67
2022/05/18 03:38:34;;;;;;;7.43;4.40;;;;;;;23.34;44.37;101981.09;5016863;28;20033;-66
2022/05/18 03:40:59;;;;;;;5.60;3.85;;;;;;;23.36;44.48;101986.25;5016496;28;21028;-67
2022/05/18 03:43:25;;;;;;;5.68;4.10;;;;;;;23.35;44.40;102000.53;5016543;28;20033;-67
2022/05/18 03:45:51;;;;;;;5.30;3.92;;;;;;;23.29;44.58;101991.41;5017800;28;20052;-66
2022/05/18 03:48:17;;;;;;;7.38;4.80;;;;;;;23.33;44.62;102002.50;5021238;28;20217;-67
2022/05/18 03:50:47;;;;;;;5.88;3.80;;;;;;;23.29;44.28;102001.22;5011702;28;20041;-67
2022/05/18 03:53:13;;;;;;;6.43;3.83;;;;;;;23.34;44.52;102005.03;5015684;28;20037;-67
2022/05/18 03:55:41;;;;;;;5.38;4.00;;;;;;;23.34;44.49;102004.16;5016806;28;20055;-67
2022/05/18 03:58:07;;;;;;;5.35;4.20;;;;;;;23.30;44.63;101998.38;5019192;28;20041;-67
2022/05/18 04:00:33;;;;;;;6.60;4.05;;;;;;;23.31;44.46;101999.19;5016124;28;20036;-67
2022/05/18 04:03:00;;;;;;;7.40;4.25;;;;;;;23.29;44.57;101996.72;5014677;28;20041;-67
2022/05/18 04:05:26;;;;;;;7.05;3.95;;;;;;;23.29;44.72;101998.56;5017448;28;20110;-67
2022/05/18 04:07:52;;;;;;;6.72;4.10;;;;;;;23.31;44.50;102001.84;5016479;28;20042;-67
2022/05/18 04:10:19;;;;;;;6.75;4.50;;;;;;;23.27;44.62;101998.72;5013454;28;20500;-67
2022/05/18 04:12:44;;;;;;;5.40;3.83;;;;;;;23.31;44.57;102001.84;5016451;28;20029;-67
2022/05/18 04:15:16;;;;;;;6.80;4.38;;;;;;;23.26;44.42;101996.25;5018008;28;20034;-66
2022/05/18 04:17:45;;;;;;;5.93;3.95;;;;;;;23.27;44.52;102005.88;5016065;28;20053;-67
2022/05/18 04:20:17;;;;;;;6.15;4.30;;;;;;;23.25;44.49;102008.69;5013582;28;20048;-67
2022/05/18 04:22:44;;;;;;;5.78;4.15;;;;;;;23.26;44.48;102001.56;5015092;28;20052;-66
2022/05/18 04:25:12;;;;;;;4.88;3.90;;;;;;;23.26;44.74;102005.03;5017636;28;20026;-66
2022/05/18 04:27:37;;;;;;;7.43;4.40;;;;;;;23.25;44.75;102006.03;5016609;28;20124;-67
2022/05/18 04:30:05;;;;;;;6.97;4.25;;;;;;;23.26;44.42;102010.38;5015890;28;20037;-67
2022/05/18 04:32:30;;;;;;;6.78;4.10;;;;;;;23.15;44.55;101992.97;5012137;28;20048;-67
2022/05/18 04:34:56;;;;;;;6.72;4.07;;;;;;;23.26;44.63;102014.84;5013043;28;20045;-67
2022/05/18 04:37:21;;;;;;;5.05;4.00;;;;;;;23.27;44.54;102024.47;5018615;28;20150;-66
2022/05/18 04:39:47;;;;;;;6.47;4.50;;;;;;;23.20;44.37;102013.72;5017958;28;20033;-67
2022/05/18 04:42:14;;;;;;;6.80;4.30;;;;;;;23.26;44.54;102018.34;5013552;28;20487;-67
2022/05/18 04:44:40;;;;;;;5.57;4.28;;;;;;;23.21;44.54;102012.72;5017088;28;20039;-67
2022/05/18 04:47:05;;;;;;;6.25;4.05;;;;;;;23.20;44.43;102017.22;5012887;28;20045;-66
2022/05/18 04:49:32;;;;;;;6.85;4.57;;;;;;;23.20;44.46;102017.22;5015255;28;20476;-67
2022/05/18 04:51:59;;;;;;;5.72;3.78;;;;;;;23.21;44.54;102020.69;5010791;28;20119;-67
2022/05/18 04:54:24;;;;;;;9.65;4.88;;;;;;;23.23;44.56;102018.69;5014224;28;20056;-66
2022/05/18 04:56:50;;;;;;;5.10;4.10;;;;;;;23.23;44.76;102020.50;5017835;28;20066;-67
2022/05/18 04:59:16;;;;;;;6.88;4.03;;;;;;;23.19;44.66;102026.19;5017630;28;20045;-67
2022/05/18 05:01:43;;;;;;;5.15;3.90;;;;;;;23.24;44.72;102030.16;5017548;28;20050;-66
2022/05/18 05:04:09;;;;;;;8.18;4.85;;;;;;;23.26;44.56;102030.78;5012480;28;20737;-67
2022/05/18 05:06:36;;;;;;;5.82;4.22;;;;;;;23.23;44.52;102029.31;5016033;28;20617;-67
2022/05/18 05:09:03;;;;;;;6.82;4.50;;;;;;;23.21;44.44;102036.63;5015927;28;20049;-67
2022/05/18 05:11:28;;;;;;;7.18;4.10;;;;;;;23.24;44.58;102038.94;5014790;28;20553;-67
2022/05/18 05:13:54;;;;;;;6.20;4.07;;;;;;;23.21;44.49;102042.78;5015941;28;20045;-67
2022/05/18 05:16:19;;;;;;;7.13;4.72;;;;;;;23.20;44.56;102041.13;5014895;28;20060;-67
2022/05/18 05:18:44;;;;;;;7.03;4.05;;;;;;;23.21;44.42;102049.91;5014257;28;20503;-67
2022/05/18 05:21:10;;;;;;;5.32;4.20;;;;;;;23.19;44.73;102046.63;5013001;28;20068;-67
2022/05/18 05:23:36;;;;;;;4.95;3.78;;;;;;;23.18;44.61;102036.97;5012694;28;20034;-67
2022/05/18 05:26:02;;;;;;;4.78;3.75;;;;;;;23.21;44.83;102052.56;5016856;28;20483;-67
2022/05/18 05:28:28;;;;;;;5.40;4.18;;;;;;;23.21;44.41;102050.75;5016372;28;20945;-67
2022/05/18 05:30:54;;;;;;;6.05;4.53;;;;;;;23.23;44.50;102049.75;5013259;28;20085;-67
2022/05/18 05:33:20;;;;;;;5.50;4.20;;;;;;;23.19;44.76;102050.09;5015436;28;20049;-67
2022/05/18 05:35:45;;;;;;;5.55;3.80;;;;;;;23.20;44.63;102045.59;5013836;28;20435;-67
2022/05/18 05:38:12;;;;;;;5.07;4.20;;;;;;;23.20;44.57;102043.78;5014542;28;20034;-67
2022/05/18 05:40:38;;;;;;;6.60;4.50;;;;;;;23.21;44.54;102045.44;5016891;28;20037;-67
2022/05/18 05:43:08;;;;;;;5.90;3.90;;;;;;;23.20;44.71;102045.59;5013925;28;20049;-67
2022/05/18 05:45:34;;;;;;;6.80;3.85;;;;;;;23.23;44.73;102047.09;5017560;28;22134;-67
2022/05/18 05:48:01;;;;;;;5.70;4.30;;;;;;;23.23;44.66;102047.09;5012400;28;20083;-67
2022/05/18 05:50:27;;;;;;;5.70;4.03;;;;;;;23.18;44.84;102037.81;5008459;28;20119;-67
2022/05/18 05:52:53;;;;;;;6.97;4.07;;;;;;;23.17;44.65;102046.78;5009710;28;20499;-67
2022/05/18 05:55:19;;;;;;;11.50;5.28;;;;;;;23.19;44.82;102039.47;5012946;28;20037;-67
2022/05/18 05:57:44;;;;;;;6.20;4.25;;;;;;;23.27;44.82;102048.41;5014112;28;20041;-67
2022/05/18 06:00:11;;;;;;;5.55;4.03;;;;;;;23.23;44.58;102045.25;5011419;28;20081;-67
2022/05/18 06:02:39;;;;;;;6.00;4.50;;;;;;;23.21;44.81;102040.13;5014243;28;20647;-67
2022/05/18 06:05:05;;;;;;;6.40;4.43;;;;;;;23.24;44.88;102051.41;5016562;28;20045;-67
2022/05/18 06:07:31;;;;;;;4.90;4.03;;;;;;;23.25;44.62;102053.88;5020121;28;20594;-67
2022/05/18 06:09:57;;;;;;;8.45;4.38;;;;;;;23.23;45.08;102063.03;5017223;28;20130;-67
2022/05/18 06:12:26;;;;;;;6.15;4.20;;;;;;;23.25;45.01;102061.84;5022566;28;20038;-67
2022/05/18 06:14:52;;;;;;;5.28;4.40;;;;;;;23.24;44.78;102065.50;5017182;28;20037;-67
2022/05/18 06:17:17;;;;;;;5.72;4.35;;;;;;;23.24;44.90;102057.53;5020129;28;20056;-67
2022/05/18 06:19:43;;;;;;;7.97;4.20;;;;;;;23.24;45.00;102056.72;5016207;28;20091;-67
2022/05/18 06:22:09;;;;;;;5.53;3.90;;;;;;;23.25;44.99;102061.84;5017984;28;20066;-67
2022/05/18 06:24:35;;;;;;;5.35;4.00;;;;;;;23.19;44.76;102044.78;5017126;28;20495;-67
2022/05/18 06:27:03;;;;;;;6.15;4.15;;;;;;;23.25;44.55;102051.22;5018504;28;20139;-67
2022/05/18 06:29:28;;;;;;;7.30;4.65;;;;;;;23.25;44.70;102056.53;5016055;28;20056;-67
2022/05/18 06:31:54;;;;;;;6.70;4.30;;;;;;;23.28;44.75;102060.69;5018418;28;20110;-67
2022/05/18 06:34:21;;;;;;;6.72;4.35;;;;;;;23.27;44.91;102067.81;5015134;28;20033;-67
2022/05/18 06:36:49;;;;;;;6.72;4.10;;;;;;;23.25;44.74;102077.81;5019294;28;20038;-67
2022/05/18 06:39:18;;;;;;;6.03;4.45;;;;;;;23.13;44.86;102050.75;5015024;28;20744;-67
2022/05/18 06:41:44;;;;;;;6.00;4.75;;;;;;;23.25;44.77;102059.19;5018347;28;20474;-67
2022/05/18 06:44:10;;;;;;;6.25;4.43;;;;;;;23.21;44.82;102053.41;5020416;28;20032;-67
2022/05/18 06:46:36;;;;;;;7.38;4.47;;;;;;;23.28;44.75;102063.34;5017122;28;22169;-67
2022/05/18 06:49:04;;;;;;;6.10;4.25;;;;;;;23.27;44.74;102061.69;5017430;28;20069;-67
2022/05/18 06:51:32;;;;;;;7.03;4.45;;;;;;;23.29;44.76;102060.50;5019466;28;20033;-67
2022/05/18 06:53:58;;;;;;;6.35;4.20;;;;;;;23.21;44.62;102039.28;5016211;28;20075;-67
2022/05/18 06:56:29;;;;;;;6.15;4.10;;;;;;;23.32;44.48;102057.50;5019569;28;20041;-67
2022/05/18 06:58:55;;;;;;;6.07;4.40;;;;;;;23.35;44.63;102054.50;5018476;28;20038;-67
2022/05/18 07:01:22;;;;;;;6.63;4.63;;;;;;;23.32;44.49;102054.00;5019243;28;20106;-67
2022/05/18 07:03:47;;;;;;;6.47;4.45;;;;;;;23.35;44.51;102057.19;5018590;28;20381;-67
2022/05/18 07:06:15;;;;;;;5.80;4.43;;;;;;;23.39;44.52;102055.00;5014759;28;20052;-67
2022/05/18 07:08:41;;;;;;;5.57;4.50;;;;;;;23.37;44.27;102049.84;5014906;28;20037;-67
2022/05/18 07:11:07;;;;;;;6.35;4.10;;;;;;;23.39;44.55;102052.34;5018335;28;20773;-67
2022/05/18 07:13:38;;;;;;;5.75;4.20;;;;;;;23.25;44.32;102029.97;5019934;28;20052;-67
2022/05/18 07:16:05;;;;;;;5.65;4.13;;;;;;;23.39;44.34;102057.66;5015746;28;20037;-67
2022/05/18 07:18:32;;;;;;;7.55;5.13;;;;;;;23.36;44.18;102048.19;5016897;28;20404;-67
2022/05/18 07:20:59;;;;;;;6.60;4.35;;;;;;;23.43;44.31;102050.97;5016504;28;20037;-67
2022/05/18 07:23:26;;;;;;;5.03;4.18;;;;;;;23.44;44.29;102052.63;5016182;28;20112;-67
2022/05/18 07:25:53;;;;;;;5.60;3.88;;;;;;;23.46;44.42;102046.13;5016537;28;20038;-67
2022/05/18 07:28:19;;;;;;;6.43;4.38;;;;;;;23.48;44.48;102053.94;5017835;28;20120;-67
2022/05/18 07:30:45;;;;;;;6.07;4.25;;;;;;;23.50;44.60;102063.38;5017253;28;21043;-67
2022/05/18 07:33:10;;;;;;;7.13;4.53;;;;;;;23.52;44.39;102057.91;5016688;28;20080;-67
2022/05/18 07:35:36;;;;;;;4.45;3.97;;;;;;;23.55;44.39;102054.06;5015867;28;20049;-67
2022/05/18 07:38:02;;;;;;;5.43;4.28;;;;;;;23.54;44.25;102055.09;5018273;28;20069;-67
2022/05/18 07:40:28;;;;;;;6.28;3.88;;;;;;;23.57;44.25;102063.56;5015133;28;20045;-67
2022/05/18 07:42:56;;;;;;;11.88;5.55;;;;;;;24.02;44.16;102054.78;5016425;28;20049;-73
2022/05/18 07:45:25;;;;;;;6.97;4.55;;;;;;;24.14;44.30;102062.34;5010152;28;20780;-68
2022/05/18 07:47:53;;;;;;;15.88;4.78;;;;;;;24.14;44.38;102065.00;4989811;28;20029;-67
2022/05/18 07:50:21;;;;;;;7.53;5.18;;;;;;;24.14;44.51;102065.84;4999159;28;20049;-69
2022/05/18 07:52:47;;;;;;;14.65;7.68;;;;;;;24.09;44.68;102053.06;5018257;28;20056;-68
2022/05/18 07:55:14;;;;;;;32.22;13.10;;;;;;;24.15;44.89;102064.00;4985873;28;20040;-73
2022/05/18 07:57:39;;;;;;;39.83;17.17;;;;;;;24.23;45.01;102059.44;5016221;28;20112;-68
2022/05/18 08:00:08;;;;;;;40.55;15.68;;;;;;;24.15;45.06;102056.84;4987543;28;20189;-66
2022/05/18 08:02:37;;;;;;;34.33;14.82;;;;;;;24.08;45.25;102056.75;5021816;28;20049;-66
2022/05/18 08:05:03;;;;;;;37.60;14.75;;;;;;;24.12;45.18;102059.88;4976655;28;20124;-65
2022/05/18 08:07:28;;;;;;;38.65;14.02;;;;;;;24.11;45.12;102059.03;5018291;28;20045;-66
2022/05/18 08:15:23;;;;;;;25.92;11.88;;;;;;;24.20;45.00;102072.28;4988533;28;20041;-66
2022/05/18 08:17:49;;;;;;;27.15;12.43;;;;;;;24.23;45.02;102063.91;5022158;28;20057;-66
2022/05/18 08:20:17;;;;;;;24.98;11.07;;;;;;;24.19;44.70;102057.31;4987881;28;20041;-65
2022/05/18 08:22:43;;;;;;;26.13;11.05;;;;;;;24.26;44.65;102063.59;5010253;28;20044;-66
2022/05/18 08:25:10;;;;;;;26.70;10.43;;;;;;;24.31;44.66;102058.56;5019986;28;20037;-66
2022/05/18 08:27:47;;;;;;;26.40;10.80;;;;;;;24.34;44.94;102063.53;4980150;28;20120;-65
2022/05/18 08:30:17;;;;;;;23.90;9.98;;;;;;;24.35;44.75;102059.88;5022705;28;20041;-66
2022/05/18 08:32:43;;;;;;;23.45;9.80;;;;;;;24.34;44.77;102063.53;4985141;28;20041;-66
2022/05/18 08:35:10;;;;;;;23.17;10.23;;;;;;;24.35;44.76;102054.53;5022469;28;20041;-66
2022/05/18 08:37:46;;;;;;;19.42;8.98;;;;;;;24.32;44.60;102061.06;4977688;28;20138;-66
2022/05/18 08:40:28;;;;;;;21.25;8.50;;;;;;;24.36;44.65;102061.50;5021008;28;20369;-65
2022/05/18 08:43:03;;;;;;;19.00;8.50;;;;;;;24.30;44.56;102052.44;4983440;28;20053;-66
2022/05/18 08:45:36;;;;;;;18.17;8.35;;;;;;;24.39;44.70;102071.81;5022959;28;20024;-66
2022/05/18 08:48:24;;;;;;;16.83;8.40;;;;;;;24.37;44.64;102063.16;4989903;28;20044;-66
2022/05/18 08:50:54;;;;;;;15.18;7.93;;;;;;;24.38;44.89;102065.66;5018254;28;20029;-66
2022/05/18 08:53:38;;;;;;;20.30;8.45;;;;;;;24.44;44.61;102064.13;4970874;28;20037;-65
2022/05/18 08:56:17;;;;;;;16.13;8.20;;;;;;;24.40;44.44;102063.63;5023985;28;20029;-66
2022/05/18 08:58:49;;;;;;;15.50;7.70;;;;;;;24.48;44.64;102075.22;4985472;28;20033;-65
2022/05/18 09:01:22;;;;;;;13.50;7.03;;;;;;;24.46;44.54;102074.59;5016260;28;20187;-65
2022/05/18 09:03:54;;;;;;;13.98;7.07;;;;;;;24.40;44.42;102052.16;4987208;28;20589;-65
2022/05/18 09:06:37;;;;;;;17.25;7.75;;;;;;;24.49;44.30;102071.56;5022499;28;20480;-64
2022/05/18 09:11:53;;;;;;;15.85;6.72;;;;;;;24.49;44.62;102075.06;5008708;28;20423;-66
2022/05/18 09:14:20;;;;;;;15.20;6.95;;;;;;;24.43;44.35;102051.81;5023996;28;20053;-66
2022/05/18 09:17:25;;;;;;;15.30;7.53;;;;;;;24.51;44.25;102070.38;4984181;28;20414;-66
2022/05/18 09:20:19;;;;;;;15.45;6.97;;;;;;;24.53;44.42;102064.84;5012191;28;20056;-66
2022/05/18 09:23:09;;;;;;;13.57;6.55;;;;;;;24.53;44.26;102064.84;4986425;28;20049;-66
2022/05/18 09:26:02;;;;;;;12.75;6.47;;;;;;;24.50;44.35;102058.06;4995356;28;20167;-66
2022/05/18 09:28:57;;;;;;;13.43;6.32;;;;;;;24.55;44.60;102069.00;5016785;28;20044;-68
2022/05/18 09:31:43;;;;;;;14.82;7.05;;;;;;;24.58;44.34;102059.81;5017674;28;20588;-66
2022/05/18 09:34:20;;;;;;;11.43;6.82;;;;;;;24.59;44.56;102062.28;4992569;28;20047;-66
2022/05/18 09:36:58;;;;;;;14.30;6.93;;;;;;;24.75;44.62;102061.28;5021197;28;20037;-71
2022/05/18 09:39:27;;;;;;;16.60;7.07;;;;;;;24.71;44.22;102046.69;4989461;28;20064;-73
2022/05/18 09:41:59;;;;;;;12.43;6.85;;;;;;;24.79;44.64;102062.59;5024011;28;20068;-65
2022/05/18 09:44:54;;;;;;;13.68;7.43;;;;;;;24.81;44.52;102055.25;4977931;28;21331;-65
2022/05/18 09:47:23;;;;;;;9.20;5.93;;;;;;;24.81;44.54;102057.91;5023720;28;20091;-65
2022/05/18 09:49:55;;;;;;;16.42;7.03;;;;;;;24.79;44.49;102054.63;4998584;28;20037;-65
2022/05/18 09:52:28;;;;;;;11.20;7.13;;;;;;;24.82;44.55;102056.09;5026452;28;20108;-65
2022/05/18 09:54:56;;;;;;;10.65;6.25;;;;;;;24.79;44.52;102051.13;4990505;28;20107;-65
2022/05/18 09:57:34;;;;;;;13.57;7.63;;;;;;;24.84;44.35;102064.72;5022219;28;20471;-65
2022/05/18 10:00:19;;;;;;;10.30;6.22;;;;;;;24.77;44.41;102061.94;4981733;28;20116;-67
2022/05/18 10:08:32;;;;;;;13.18;6.38;;;;;;;25.09;44.19;102063.44;5025169;28;20549;-69
2022/05/18 10:11:07;;;;;;;10.05;6.53;;;;;;;25.11;44.27;102056.09;4993403;28;20037;-67
2022/05/18 10:13:42;;;;;;;13.85;6.57;;;;;;;25.17;44.26;102057.19;5031312;28;20038;-72
2022/05/18 10:16:10;;;;;;;13.25;7.05;;;;;;;25.19;44.21;102065.84;4990477;28;20073;-72
2022/05/18 10:18:43;;;;;;;12.02;7.20;;;;;;;25.06;44.33;102060.31;5028281;28;20534;-72
2022/05/18 10:21:09;;;;;;;10.50;6.72;;;;;;;25.07;44.35;102069.97;4992239;28;20468;-74
2022/05/18 10:23:51;;;;;;;13.32;6.93;;;;;;;25.09;44.36;102062.63;5034255;28;20854;-74
2022/05/18 10:26:23;;;;;;;11.50;7.18;;;;;;;25.07;44.11;102064.66;4991262;28;20098;-71
2022/05/18 10:28:58;;;;;;;10.93;7.28;;;;;;;25.03;44.29;102068.69;5022787;28;20506;-70
2022/05/18 10:31:34;;;;;;;13.98;6.65;;;;;;;25.02;44.05;102072.38;4990568;28;20383;-70
2022/05/18 10:34:25;;;;;;;9.63;6.50;;;;;;;25.07;44.24;102067.31;5019625;28;20076;-70
2022/05/18 10:36:54;;;;;;;13.10;6.10;;;;;;;25.02;44.09;102059.06;4997123;28;20040;-70
2022/05/18 10:39:47;;;;;;;11.55;6.43;;;;;;;25.06;43.86;102066.47;5021685;28;20060;-70
2022/05/18 10:42:20;;;;;;;12.07;6.20;;;;;;;25.08;43.94;102056.47;5011998;28;20058;-68
2022/05/18 10:44:47;;;;;;;10.77;5.95;;;;;;;25.02;43.67;102059.88;4993215;28;20243;-68
2022/05/18 10:47:22;;;;;;;10.45;6.70;;;;;;;25.12;43.60;102065.72;5018439;28;20026;-68
2022/05/18 10:49:48;;;;;;;11.75;6.00;;;;;;;25.02;43.65;102041.22;4994477;28;20696;-68
2022/05/18 10:52:29;;;;;;;10.38;6.07;;;;;;;25.14;43.49;102065.56;5021461;28;20909;-69
2022/05/18 10:55:03;;;;;;;10.48;6.15;;;;;;;25.14;43.50;102054.91;4991759;28;20033;-68
2022/05/18 10:57:40;;;;;;;11.68;6.03;;;;;;;25.08;43.43;102052.97;5021317;28;20428;-68
2022/05/18 11:00:12;;;;;;;9.57;5.95;;;;;;;25.13;43.46;102063.91;4995768;28;20040;-69
2022/05/18 11:03:15;;;;;;;8.98;5.90;;;;;;;25.11;43.56;102050.75;5016123;28;20040;-71
2022/05/18 11:05:46;;;;;;;10.48;6.47;;;;;;;25.21;43.40;102055.81;4981846;28;20030;-71
2022/05/18 11:08:16;;;;;;;13.23;6.88;;;;;;;25.18;43.41;102056.19;5018632;28;20037;-70
2022/05/18 11:10:54;;;;;;;9.50;6.50;;;;;;;25.17;43.37;102057.19;4992719;28;20120;-71
2022/05/18 11:13:41;;;;;;;8.50;6.32;;;;;;;25.19;43.70;102057.84;5018923;28;20045;-71
2022/05/18 11:16:22;;;;;;;9.73;6.43;;;;;;;25.17;43.68;102046.53;4992368;28;20034;-70
2022/05/18 11:18:56;;;;;;;11.25;6.10;;;;;;;25.12;43.67;102044.41;5019298;28;20045;-71
2022/05/18 11:21:36;;;;;;;9.27;6.15;;;;;;;25.17;43.63;102041.22;4993320;28;20044;-71
2022/05/18 11:24:05;;;;;;;9.30;6.43;;;;;;;25.23;43.71;102048.44;5020484;28;20033;-70
2022/05/18 11:26:59;;;;;;;11.20;7.00;;;;;;;25.23;43.82;102051.13;4991653;28;20052;-70
2022/05/18 11:29:48;;;;;;;10.90;6.75;;;;;;;25.22;44.01;102044.13;5015373;28;20040;-70
2022/05/18 11:32:42;;;;;;;13.20;6.90;;;;;;;25.21;43.95;102037.97;5018317;28;20033;-70
2022/05/18 11:35:20;;;;;;;12.48;7.05;;;;;;;25.21;43.85;102047.81;4984586;28;20499;-70
2022/05/18 11:38:18;;;;;;;11.32;7.13;;;;;;;25.20;43.99;102036.31;5018416;28;20399;-71
2022/05/18 11:40:57;;;;;;;10.45;7.00;;;;;;;25.12;44.27;102027.59;4987264;28;20040;-72
2022/05/18 11:43:33;;;;;;;10.80;6.60;;;;;;;25.22;44.50;102044.97;5021255;28;20152;-71
2022/05/18 11:46:32;;;;;;;13.07;7.22;;;;;;;25.24;44.69;102047.44;4996899;28;20475;-72
2022/05/18 11:49:21;;;;;;;13.27;6.90;;;;;;;25.24;44.36;102044.78;5021994;28;20025;-70
2022/05/18 11:52:24;;;;;;;9.38;6.90;;;;;;;25.22;44.84;102049.47;4988779;28;20929;-70
2022/05/18 11:54:52;;;;;;;10.98;6.75;;;;;;;25.24;44.99;102052.78;4995437;28;20574;-72